Time;durP1;ratioP1;P1;durP2;ratioP2;P2;SDS_P1;SDS_P2;PMS_P1;PMS_P2;Temp;Humidity;BMP_temperature;BMP_pressure;BME280_temperature;BME280_humidity;BME280_pressure;Samples;Min_cycle;Max_cycle;Signal;HPM_P1;HPM_P2
2022/03/27 00:01:46;;;;;;;;;;;6.20;99.90;;;;;;4957472;28;19932;-77
2022/03/27 00:04:13;;;;;;;;;;;6.20;99.90;;;;;;4944421;28;19922;-77
2022/03/27 00:06:38;;;;;;;;;;;6.20;99.90;;;;;;4967322;28;20309;-76
2022/03/27 00:09:15;;;;;;;;;;;6.20;99.90;;;;;;4968592;28;19964;-76
2022/03/27 00:11:42;;;;;;;;;;;6.20;99.90;;;;;;4929884;28;19929;-77
2022/03/27 00:14:07;;;;;;;;;;;6.20;99.90;;;;;;4956165;28;19922;-77
2022/03/27 00:16:34;;;;;;;;;;;6.20;99.90;;;;;;4956732;28;19930;-77
2022/03/27 00:19:01;;;;;;;;;;;6.20;99.90;;;;;;4940567;28;20376;-77
2022/03/27 00:21:31;;;;;;;;;;;6.20;99.90;;;;;;4974161;28;19933;-77
2022/03/27 00:23:58;;;;;;;;;;;6.20;99.90;;;;;;4956284;28;19980;-76
2022/03/27 00:26:40;;;;;;;;;;;6.20;99.90;;;;;;4900211;29;19923;-76
2022/03/27 00:29:06;;;;;;;;;;;6.20;99.90;;;;;;4898416;29;19934;-76
2022/03/27 00:31:35;;;;;;;;;;;6.20;99.90;;;;;;4912710;29;19927;-76
2022/03/27 00:34:02;;;;;;;;;;;6.30;99.90;;;;;;4898551;29;19974;-76
2022/03/27 00:36:28;;;;;;;;;;;6.30;99.90;;;;;;4913770;29;19923;-76
2022/03/27 00:38:55;;;;;;;;;;;6.30;99.90;;;;;;4898247;29;19927;-76
2022/03/27 00:41:23;;;;;;;;;;;6.30;99.90;;;;;;4898287;29;20453;-76
2022/03/27 00:43:48;;;;;;;;;;;6.40;99.90;;;;;;4882174;29;19923;-76
2022/03/27 00:46:15;;;;;;;;;;;6.40;99.90;;;;;;4882228;29;19938;-76
2022/03/27 00:48:41;;;;;;;;;;;6.40;99.90;;;;;;4898203;29;19923;-76
2022/03/27 00:51:08;;;;;;;;;;;6.50;99.90;;;;;;4898135;29;19923;-76
2022/03/27 00:53:34;;;;;;;;;;;6.50;99.90;;;;;;4898318;29;19934;-76
2022/03/27 00:56:03;;;;;;;;;;;6.50;99.90;;;;;;4913291;29;20418;-76
2022/03/27 00:58:29;;;;;;;;;;;6.50;99.90;;;;;;4947877;29;20046;-76
2022/03/27 01:00:55;;;;;;;;;;;6.60;99.90;;;;;;4934349;29;20366;-76
2022/03/27 01:03:23;;;;;;;;;;;6.60;99.90;;;;;;4966727;28;19927;-77
2022/03/27 01:05:49;;;;;;;;;;;6.60;99.90;;;;;;4970710;28;19926;-77
2022/03/27 01:09:35;;;;;;;;;;;6.60;99.90;;;;;;4972690;28;20001;-75
2022/03/27 01:11:09;;;;;;;;;;;6.60;99.90;;;;;;4939133;29;19923;-76
2022/03/27 01:13:48;;;;;;;;;;;6.60;99.90;;;;;;4934945;29;19936;-75
2022/03/27 01:16:30;;;;;;;;;;;6.60;99.90;;;;;;4965647;28;19926;-75
2022/03/27 01:18:56;;;;;;;;;;;6.60;99.90;;;;;;4965091;28;20009;-75
2022/03/27 01:21:21;;;;;;;;;;;6.60;99.90;;;;;;4932941;29;20055;-75
2022/03/27 01:23:47;;;;;;;;;;;6.50;99.90;;;;;;4934967;29;19923;-75
2022/03/27 01:26:13;;;;;;;;;;;6.50;99.90;;;;;;4949207;29;19926;-76
2022/03/27 01:28:38;;;;;;;;;;;6.40;99.90;;;;;;4949556;29;19926;-76
2022/03/27 01:31:05;;;;;;;;;;;6.40;99.90;;;;;;4933188;29;19927;-76
2022/03/27 01:33:30;;;;;;;;;;;6.40;99.90;;;;;;4965592;28;19933;-75
2022/03/27 01:35:57;;;;;;;;;;;6.40;99.90;;;;;;4933608;29;20009;-76
2022/03/27 01:38:38;;;;;;;;;;;6.40;99.90;;;;;;4949192;29;20442;-76
2022/03/27 01:41:04;;;;;;;;;;;6.30;99.90;;;;;;4949563;29;19937;-75
2022/03/27 01:43:34;;;;;;;;;;;6.30;99.90;;;;;;4917972;29;19922;-76
2022/03/27 01:46:00;;;;;;;;;;;6.30;99.90;;;;;;4949046;29;20397;-76
2022/03/27 01:48:28;;;;;;;;;;;6.30;99.90;;;;;;4949019;28;19969;-76
2022/03/27 01:51:05;;;;;;;;;;;6.20;99.90;;;;;;4949169;29;20457;-76
2022/03/27 01:53:35;;;;;;;;;;;6.20;99.90;;;;;;4917999;29;19930;-76
2022/03/27 01:56:03;;;;;;;;;;;6.20;99.90;;;;;;4948537;28;20386;-76
2022/03/27 01:58:33;;;;;;;;;;;6.20;99.90;;;;;;4938349;29;20271;-76
2022/03/27 02:01:02;;;;;;;;;;;6.20;99.90;;;;;;4957403;28;20017;-76
2022/03/27 02:03:28;;;;;;;;;;;6.20;99.90;;;;;;4936851;29;19938;-76
2022/03/27 02:05:54;;;;;;;;;;;6.20;99.90;;;;;;4936902;29;19930;-76
2022/03/27 02:08:24;;;;;;;;;;;6.10;99.90;;;;;;4936949;29;19926;-76
2022/03/27 02:10:50;;;;;;;;;;;6.10;99.90;;;;;;4937121;29;19922;-76
2022/03/27 02:13:21;;;;;;;;;;;6.10;99.90;;;;;;4937752;29;19973;-76
2022/03/27 02:15:48;;;;;;;;;;;6.10;99.90;;;;;;4936886;29;19923;-75
2022/03/27 02:18:15;;;;;;;;;;;6.00;99.90;;;;;;4941199;29;20393;-75
2022/03/27 02:20:46;;;;;;;;;;;6.00;99.90;;;;;;4941809;29;19985;-78
2022/03/27 02:23:16;;;;;;;;;;;5.90;99.90;;;;;;4962106;29;19923;-76
2022/03/27 02:25:42;;;;;;;;;;;5.90;99.90;;;;;;4938770;29;19929;-76
2022/03/27 02:28:08;;;;;;;;;;;5.90;99.90;;;;;;4952020;29;20287;-76
2022/03/27 02:30:34;;;;;;;;;;;5.80;99.90;;;;;;4937681;28;19926;-76
2022/03/27 02:33:00;;;;;;;;;;;5.80;99.90;;;;;;4951949;28;19926;-76
2022/03/27 02:35:26;;;;;;;;;;;5.80;99.90;;;;;;4952417;28;20030;-76
2022/03/27 02:37:56;;;;;;;;;;;5.70;99.90;;;;;;4967557;28;19934;-76
2022/03/27 02:40:26;;;;;;;;;;;5.70;99.90;;;;;;4935223;29;20374;-75
2022/03/27 02:42:52;;;;;;;;;;;5.70;99.90;;;;;;4935196;29;19926;-76
2022/03/27 02:45:17;;;;;;;;;;;5.70;99.90;;;;;;4936032;29;19941;-76
2022/03/27 02:47:51;;;;;;;;;;;5.80;99.90;;;;;;4936063;29;20669;-76
2022/03/27 02:50:17;;;;;;;;;;;5.80;99.90;;;;;;4936028;29;19922;-76
2022/03/27 02:52:45;;;;;;;;;;;5.80;99.90;;;;;;4919975;29;19926;-77
2022/03/27 02:55:11;;;;;;;;;;;5.80;99.90;;;;;;4951574;29;20010;-76
2022/03/27 02:57:37;;;;;;;;;;;5.70;99.90;;;;;;4935137;29;20022;-76
2022/03/27 03:00:03;;;;;;;;;;;5.70;99.90;;;;;;4937172;29;19926;-75
2022/03/27 03:02:29;;;;;;;;;;;5.70;99.90;;;;;;4970532;28;20413;-77
2022/03/27 03:04:55;;;;;;;;;;;5.60;99.90;;;;;;4938483;29;19965;-76
2022/03/27 03:07:20;;;;;;;;;;;5.60;99.90;;;;;;4938214;28;20358;-77
2022/03/27 03:09:49;;;;;;;;;;;5.60;99.90;;;;;;4954174;29;20018;-76
2022/03/27 03:12:19;;;;;;;;;;;5.60;99.90;;;;;;4954131;29;20437;-75
2022/03/27 03:14:48;;;;;;;;;;;5.60;99.90;;;;;;4955625;29;19927;-77
2022/03/27 03:17:15;;;;;;;;;;;5.60;99.90;;;;;;4985784;28;19977;-77
2022/03/27 03:19:42;;;;;;;;;;;5.50;99.90;;;;;;4986469;28;20382;-76
2022/03/27 03:22:14;;;;;;;;;;;5.50;99.90;;;;;;4986229;28;19926;-76
2022/03/27 03:24:40;;;;;;;;;;;5.50;99.90;;;;;;4954437;29;19923;-77
2022/03/27 03:27:07;;;;;;;;;;;5.60;99.90;;;;;;4954245;29;20350;-75
2022/03/27 03:29:34;;;;;;;;;;;5.60;99.90;;;;;;4938378;29;19932;-76
2022/03/27 03:32:00;;;;;;;;;;;5.60;99.90;;;;;;4954214;29;19926;-77
2022/03/27 03:34:26;;;;;;;;;;;5.60;99.90;;;;;;4955467;29;20445;-76
2022/03/27 03:36:52;;;;;;;;;;;5.60;99.90;;;;;;4954071;29;19993;-76
2022/03/27 03:39:22;;;;;;;;;;;5.60;99.90;;;;;;4961394;29;20005;-76
2022/03/27 03:42:16;;;;;;;;;;;5.50;99.90;;;;;;4945350;28;19976;-76
2022/03/27 03:44:43;;;;;;;;;;;5.50;99.90;;;;;;4918257;29;20031;-76
2022/03/27 03:47:09;;;;;;;;;;;5.40;99.90;;;;;;4917466;29;20004;-76
2022/03/27 03:49:51;;;;;;;;;;;5.40;99.90;;;;;;4901995;29;20017;-76
2022/03/27 03:52:22;;;;;;;;;;;5.30;99.90;;;;;;4901991;29;20283;-76
2022/03/27 03:54:51;;;;;;;;;;;5.30;99.90;;;;;;4933689;29;19929;-76
2022/03/27 03:57:18;;;;;;;;;;;5.20;99.90;;;;;;4929991;29;20009;-77
2022/03/27 03:59:45;;;;;;;;;;;5.20;99.90;;;;;;4917475;29;19930;-76
2022/03/27 04:02:18;;;;;;;;;;;5.10;99.90;;;;;;4916483;29;19923;-76
2022/03/27 04:04:46;;;;;;;;;;;5.00;99.90;;;;;;4899240;29;19935;-76
2022/03/27 04:07:15;;;;;;;;;;;5.00;99.90;;;;;;4899564;29;19966;-76
2022/03/27 04:09:41;;;;;;;;;;;4.90;99.90;;;;;;4899177;29;19923;-76
2022/03/27 04:12:07;;;;;;;;;;;4.90;99.90;;;;;;4898845;29;20005;-76
2022/03/27 04:14:36;;;;;;;;;;;4.80;99.90;;;;;;4899416;29;20342;-77
2022/03/27 04:17:04;;;;;;;;;;;4.80;99.90;;;;;;4898643;29;19927;-77
2022/03/27 04:19:30;;;;;;;;;;;4.70;99.90;;;;;;4882482;29;20393;-77
2022/03/27 04:21:56;;;;;;;;;;;4.70;99.90;;;;;;4883003;29;20005;-77
2022/03/27 04:24:21;;;;;;;;;;;4.70;99.90;;;;;;4883034;29;20399;-77
2022/03/27 04:26:47;;;;;;;;;;;4.60;99.90;;;;;;4898923;29;19923;-77
2022/03/27 04:29:14;;;;;;;;;;;4.60;99.90;;;;;;4904072;29;19929;-77
2022/03/27 04:31:41;;;;;;;;;;;4.60;99.90;;;;;;4925947;29;20049;-77
2022/03/27 04:34:08;;;;;;;;;;;4.50;99.90;;;;;;4905872;29;19923;-77
2022/03/27 04:36:37;;;;;;;;;;;4.50;99.90;;;;;;4913980;29;19923;-77
2022/03/27 04:39:03;;;;;;;;;;;4.50;99.90;;;;;;4898325;29;19967;-77
2022/03/27 04:41:29;;;;;;;;;;;4.40;99.90;;;;;;4934497;29;19922;-77
2022/03/27 04:43:54;;;;;;;;;;;4.40;99.90;;;;;;4953442;29;19933;-77
2022/03/27 04:46:24;;;;;;;;;;;4.40;99.90;;;;;;4969098;28;20005;-77
2022/03/27 04:48:50;;;;;;;;;;;4.40;99.90;;;;;;4937639;29;19948;-77
2022/03/27 04:51:21;;;;;;;;;;;4.50;99.90;;;;;;4936825;29;20017;-77
2022/03/27 04:53:51;;;;;;;;;;;4.50;99.90;;;;;;4954400;29;20336;-76
2022/03/27 04:56:17;;;;;;;;;;;4.50;99.90;;;;;;4957755;28;19921;-76
2022/03/27 04:58:42;;;;;;;;;;;4.60;99.90;;;;;;4973706;28;19942;-76
2022/03/27 05:01:08;;;;;;;;;;;4.60;99.90;;;;;;4973525;28;19922;-76
2022/03/27 05:03:33;;;;;;;;;;;4.60;99.90;;;;;;4972517;28;20277;-76
2022/03/27 05:05:59;;;;;;;;;;;4.80;99.90;;;;;;4971697;28;19926;-76
2022/03/27 05:08:25;;;;;;;;;;;4.80;99.90;;;;;;4972109;28;19925;-77
2022/03/27 05:10:51;;;;;;;;;;;4.80;99.90;;;;;;4956151;28;19922;-76
2022/03/27 05:13:20;;;;;;;;;;;4.90;99.90;;;;;;4973615;28;20017;-76
2022/03/27 05:15:47;;;;;;;;;;;4.90;99.90;;;;;;4972735;28;20395;-76
2022/03/27 05:18:12;;;;;;;;;;;4.90;99.90;;;;;;4940247;28;19922;-76
2022/03/27 05:20:49;;;;;;;;;;;4.90;99.90;;;;;;4956336;28;19926;-76
2022/03/27 05:23:15;;;;;;;;;;;4.90;99.90;;;;;;4956621;28;19937;-76
2022/03/27 05:25:41;;;;;;;;;;;4.80;99.90;;;;;;4973962;28;19922;-76
2022/03/27 05:28:11;;;;;;;;;;;4.80;99.90;;;;;;4982743;28;19929;-76
2022/03/27 05:30:37;;;;;;;;;;;4.80;99.90;;;;;;4967203;28;20357;-75
2022/03/27 05:33:05;;;;;;;;;;;4.80;99.90;;;;;;4954416;28;19929;-75
2022/03/27 05:35:31;;;;;;;;;;;4.80;99.90;;;;;;4965481;28;20021;-76
2022/03/27 05:37:58;;;;;;;;;;;4.70;99.90;;;;;;4978972;28;19965;-75
2022/03/27 05:40:24;;;;;;;;;;;4.80;99.90;;;;;;4959574;28;20444;-77
2022/03/27 05:42:53;;;;;;;;;;;4.80;99.90;;;;;;4976759;28;19968;-76
2022/03/27 05:45:23;;;;;;;;;;;4.80;99.90;;;;;;4960243;28;19922;-76
2022/03/27 05:47:49;;;;;;;;;;;4.80;99.90;;;;;;4943279;28;19977;-76
2022/03/27 05:50:16;;;;;;;;;;;4.90;99.90;;;;;;4943583;28;19980;-76
2022/03/27 05:52:42;;;;;;;;;;;5.00;99.90;;;;;;4959381;28;20025;-76
2022/03/27 05:55:07;;;;;;;;;;;4.90;99.90;;;;;;4959216;28;20001;-76
2022/03/27 05:57:35;;;;;;;;;;;5.00;99.90;;;;;;4974449;28;19929;-76
2022/03/27 06:00:02;;;;;;;;;;;5.10;99.90;;;;;;4943454;28;19922;-76
2022/03/27 06:02:27;;;;;;;;;;;5.20;99.90;;;;;;4943237;28;19972;-76
2022/03/27 06:04:56;;;;;;;;;;;5.30;99.90;;;;;;4959735;28;20013;-76
2022/03/27 06:07:22;;;;;;;;;;;5.40;99.90;;;;;;4954703;29;20009;-76
2022/03/27 06:09:48;;;;;;;;;;;5.50;99.90;;;;;;4923157;29;19969;-77
2022/03/27 06:12:14;;;;;;;;;;;5.60;99.90;;;;;;4938212;29;19922;-76
2022/03/27 06:14:40;;;;;;;;;;;5.60;99.90;;;;;;4922672;29;20013;-76
2022/03/27 06:17:06;;;;;;;;;;;5.80;99.90;;;;;;4938616;29;19985;-76
2022/03/27 06:19:31;;;;;;;;;;;5.90;99.90;;;;;;4939215;29;19969;-76
2022/03/27 06:21:57;;;;;;;;;;;6.00;99.90;;;;;;4947067;29;19922;-76
2022/03/27 06:24:24;;;;;;;;;;;6.00;99.90;;;;;;4962781;29;19929;-77
2022/03/27 06:26:51;;;;;;;;;;;6.20;99.90;;;;;;4962033;29;19922;-76
2022/03/27 06:29:16;;;;;;;;;;;6.20;99.90;;;;;;4923299;29;19933;-76
2022/03/27 06:31:47;;;;;;;;;;;6.30;99.90;;;;;;4954396;29;19929;-77
2022/03/27 06:34:13;;;;;;;;;;;6.40;99.90;;;;;;4922733;29;19930;-75
2022/03/27 06:36:42;;;;;;;;;;;6.50;99.90;;;;;;4954196;29;20294;-76
2022/03/27 06:39:11;;;;;;;;;;;6.60;99.90;;;;;;4970353;28;19926;-77
2022/03/27 06:41:36;;;;;;;;;;;6.70;99.90;;;;;;4941896;28;19922;-76
2022/03/27 06:44:03;;;;;;;;;;;6.80;99.90;;;;;;4958048;28;20341;-76
2022/03/27 06:46:29;;;;;;;;;;;6.80;99.90;;;;;;4942685;28;20017;-76
2022/03/27 06:48:55;;;;;;;;;;;7.00;99.90;;;;;;4958582;28;20024;-77
2022/03/27 06:51:20;;;;;;;;;;;7.00;99.90;;;;;;4958156;28;19926;-76
2022/03/27 06:53:47;;;;;;;;;;;7.10;99.90;;;;;;4958550;28;19929;-77
2022/03/27 06:56:16;;;;;;;;;;;7.30;99.90;;;;;;4975260;28;19922;-76
2022/03/27 06:58:42;;;;;;;;;;;7.40;99.90;;;;;;4941856;28;19973;-76
2022/03/27 07:03:55;;;;;;;;;;;7.60;99.90;;;;;;4939399;29;19981;-77
2022/03/27 07:06:25;;;;;;;;;;;7.70;99.90;;;;;;4954876;29;19929;-77
2022/03/27 07:08:59;;;;;;;;;;;7.80;99.90;;;;;;4955573;29;19927;-78
2022/03/27 07:11:25;;;;;;;;;;;7.90;99.90;;;;;;4938619;29;19946;-78
2022/03/27 07:13:50;;;;;;;;;;;8.00;99.90;;;;;;4938576;29;19923;-77
2022/03/27 07:16:16;;;;;;;;;;;8.10;99.90;;;;;;4938467;29;19922;-77
2022/03/27 07:18:42;;;;;;;;;;;8.30;99.90;;;;;;4971189;28;19929;-76
2022/03/27 07:21:08;;;;;;;;;;;8.30;99.90;;;;;;4938372;29;20369;-76
2022/03/27 07:23:49;;;;;;;;;;;8.30;99.90;;;;;;4937714;29;19961;-76
2022/03/27 07:26:34;;;;;;;;;;;8.30;99.90;;;;;;4955942;29;19962;-77
2022/03/27 07:29:01;;;;;;;;;;;8.50;99.90;;;;;;4954738;29;19969;-77
2022/03/27 07:31:35;;;;;;;;;;;8.60;99.90;;;;;;4938552;29;20003;-76
2022/03/27 07:34:01;;;;;;;;;;;8.70;99.90;;;;;;4955028;29;19926;-78
2022/03/27 07:36:27;;;;;;;;;;;8.70;99.90;;;;;;4970798;28;20358;-77
2022/03/27 07:38:53;;;;;;;;;;;8.80;99.90;;;;;;4954647;28;19965;-77
2022/03/27 07:41:18;;;;;;;;;;;9.00;99.90;;;;;;4938292;29;20416;-77
2022/03/27 07:43:45;;;;;;;;;;;9.20;99.90;;;;;;4954011;29;19934;-76
2022/03/27 07:46:12;;;;;;;;;;;9.40;99.90;;;;;;4954750;29;19966;-77
2022/03/27 07:48:38;;;;;;;;;;;9.50;99.90;;;;;;4970856;28;20361;-77
2022/03/27 07:51:06;;;;;;;;;;;9.40;99.90;;;;;;4956221;29;20393;-76
2022/03/27 07:53:32;;;;;;;;;;;9.40;99.90;;;;;;4956000;28;19929;-76
2022/03/27 07:55:58;;;;;;;;;;;9.40;99.90;;;;;;4958048;29;19923;-79
2022/03/27 07:58:24;;;;;;;;;;;9.30;99.90;;;;;;4959005;28;19986;-77
2022/03/27 08:00:49;;;;;;;;;;;9.20;99.90;;;;;;4930485;29;19926;-78
2022/03/27 08:03:16;;;;;;;;;;;9.10;99.90;;;;;;4961548;28;19926;-76
2022/03/27 08:05:45;;;;;;;;;;;9.10;99.90;;;;;;4923795;29;19923;-76
2022/03/27 08:08:30;;;;;;;;;;;9.20;99.90;;;;;;4953868;29;19922;-77
2022/03/27 08:10:56;;;;;;;;;;;9.30;99.90;;;;;;4953476;29;20389;-77
2022/03/27 08:13:22;;;;;;;;;;;9.30;99.90;;;;;;4953596;29;19922;-77
2022/03/27 08:15:47;;;;;;;;;;;9.50;99.90;;;;;;4955152;28;19922;-77
2022/03/27 08:18:13;;;;;;;;;;;9.50;99.90;;;;;;4953633;29;19929;-76
2022/03/27 08:20:40;;;;;;;;;;;9.60;99.90;;;;;;4937066;29;19929;-76
2022/03/27 08:23:08;;;;;;;;;;;9.60;99.90;;;;;;4953373;29;20037;-77
2022/03/27 08:28:25;;;;;;;;;;;9.60;99.90;;;;;;4954431;28;20302;-77
2022/03/27 08:30:51;;;;;;;;;;;9.50;99.90;;;;;;4937611;29;19922;-78
2022/03/27 08:33:20;;;;;;;;;;;9.50;99.90;;;;;;4953214;29;20312;-77
2022/03/27 08:35:46;;;;;;;;;;;9.40;99.90;;;;;;4952997;29;19926;-78
2022/03/27 08:38:20;;;;;;;;;;;9.40;99.90;;;;;;4937258;29;19992;-77
2022/03/27 08:40:45;;;;;;;;;;;9.50;99.90;;;;;;4952719;29;20352;-76
2022/03/27 08:43:13;;;;;;;;;;;9.70;99.90;;;;;;4937644;29;19922;-76
2022/03/27 08:45:40;;;;;;;;;;;9.80;99.90;;;;;;4953366;29;20359;-77
2022/03/27 08:48:06;;;;;;;;;;;9.90;99.90;;;;;;4953516;29;19922;-77
2022/03/27 08:50:37;;;;;;;;;;;10.00;99.90;;;;;;4953393;29;19969;-77
2022/03/27 08:53:05;;;;;;;;;;;10.10;99.90;;;;;;4952982;29;19923;-77
2022/03/27 08:55:51;;;;;;;;;;;10.20;99.90;;;;;;4937624;29;19923;-77
2022/03/27 08:58:19;;;;;;;;;;;10.20;99.90;;;;;;4952971;28;20366;-76
2022/03/27 09:00:45;;;;;;;;;;;10.20;99.90;;;;;;4953082;29;20432;-77
2022/03/27 09:03:11;;;;;;;;;;;10.20;99.90;;;;;;4953502;29;19977;-77
2022/03/27 09:05:41;;;;;;;;;;;10.30;99.90;;;;;;4954226;28;20013;-76
2022/03/27 09:08:09;;;;;;;;;;;10.80;99.90;;;;;;4958738;28;19922;-77
2022/03/27 09:10:35;;;;;;;;;;;11.10;99.90;;;;;;4920722;29;20007;-77
2022/03/27 09:13:04;;;;;;;;;;;11.30;99.90;;;;;;4953337;29;20015;-78
2022/03/27 09:15:31;;;;;;;;;;;11.40;99.90;;;;;;4936643;29;19923;-76
2022/03/27 09:18:02;;;;;;;;;;;11.40;99.90;;;;;;4905326;29;20010;-75
2022/03/27 09:20:37;;;;;;;;;;;11.60;99.90;;;;;;4952425;29;20005;-77
2022/03/27 09:23:11;;;;;;;;;;;11.70;99.90;;;;;;4936435;29;20013;-77
2022/03/27 09:25:49;;;;;;;;;;;11.70;99.90;;;;;;4920802;29;19958;-79
2022/03/27 09:28:39;;;;;;;;;;;11.70;99.90;;;;;;4951884;29;19979;-77
2022/03/27 09:31:18;;;;;;;;;;;11.70;99.90;;;;;;4920510;29;20000;-78
2022/03/27 09:34:08;;;;;;;;;;;12.20;99.90;;;;;;4920497;29;19922;-77
2022/03/27 09:36:39;;;;;;;;;;;12.20;99.90;;;;;;4936603;29;19938;-77
2022/03/27 09:39:22;;;;;;;;;;;12.30;99.90;;;;;;4921759;29;19923;-76
2022/03/27 09:42:07;;;;;;;;;;;12.50;99.90;;;;;;4954013;29;19923;-78
2022/03/27 09:44:36;;;;;;;;;;;12.70;99.90;;;;;;4980582;28;19989;-79
2022/03/27 09:47:10;;;;;;;;;;;12.80;99.90;;;;;;4980163;28;19930;-78
2022/03/27 09:49:55;;;;;;;;;;;13.00;99.90;;;;;;4942803;29;19977;-77
2022/03/27 09:52:40;;;;;;;;;;;13.10;99.90;;;;;;4935999;29;19923;-77
2022/03/27 09:55:11;;;;;;;;;;;13.20;99.90;;;;;;4919856;29;20403;-77
2022/03/27 09:57:41;;;;;;;;;;;13.30;99.90;;;;;;4920527;29;19926;-78
2022/03/27 10:00:13;;;;;;;;;;;13.40;99.90;;;;;;4935053;29;19931;-79
2022/03/27 10:03:09;;;;;;;;;;;13.60;99.90;;;;;;4900615;29;19923;-77
2022/03/27 10:05:35;;;;;;;;;;;13.70;99.90;;;;;;4916324;29;20370;-78
2022/03/27 10:08:01;;;;;;;;;;;13.80;99.90;;;;;;4900342;29;19933;-78
2022/03/27 10:10:27;;;;;;;;;;;13.90;99.90;;;;;;4900156;29;19971;-78
2022/03/27 10:12:56;;;;;;;;;;;14.10;99.90;;;;;;4884509;29;19922;-79
2022/03/27 10:15:29;;;;;;;;;;;14.10;99.90;;;;;;4916064;29;19974;-78
2022/03/27 10:17:56;;;;;;;;;;;14.20;99.90;;;;;;4883763;29;19986;-79
2022/03/27 10:20:25;;;;;;;;;;;14.20;99.90;;;;;;4900452;29;20278;-77
2022/03/27 10:23:01;;;;;;;;;;;14.40;99.90;;;;;;4903718;29;20477;-78
2022/03/27 10:25:34;;;;;;;;;;;14.60;99.90;;;;;;4934484;29;19978;-78
2022/03/27 10:28:02;;;;;;;;;;;14.70;99.90;;;;;;4919692;29;20375;-78
2022/03/27 10:30:28;;;;;;;;;;;14.90;99.90;;;;;;4903893;29;19927;-77
2022/03/27 10:33:00;;;;;;;;;;;15.10;99.90;;;;;;4935401;29;19934;-77
2022/03/27 10:35:54;;;;;;;;;;;15.40;99.90;;;;;;4889313;29;19923;-77
2022/03/27 10:38:42;;;;;;;;;;;15.70;99.90;;;;;;4918965;29;20390;-78
2022/03/27 10:41:20;;;;;;;;;;;15.80;99.90;;;;;;4918764;29;19926;-78
2022/03/27 10:44:05;;;;;;;;;;;15.90;99.50;;;;;;4919323;29;19923;-78
2022/03/27 10:46:35;;;;;;;;;;;16.20;99.40;;;;;;4935892;29;19923;-78
2022/03/27 10:49:20;;;;;;;;;;;16.40;98.70;;;;;;4967901;28;19922;-78
2022/03/27 10:51:46;;;;;;;;;;;16.60;97.90;;;;;;4967388;28;19923;-78
2022/03/27 10:54:22;;;;;;;;;;;16.60;97.70;;;;;;4935877;29;19927;-78
2022/03/27 10:57:00;;;;;;;;;;;16.70;98.40;;;;;;4924834;28;19926;-78
2022/03/27 10:59:40;;;;;;;;;;;17.00;98.60;;;;;;4938969;29;19926;-78
2022/03/27 11:02:06;;;;;;;;;;;17.20;96.20;;;;;;4974404;28;20407;-79
2022/03/27 11:04:37;;;;;;;;;;;17.10;96.80;;;;;;4975530;28;19977;-78
2022/03/27 11:07:24;;;;;;;;;;;17.10;95.40;;;;;;4942565;28;20016;-78
2022/03/27 11:09:53;;;;;;;;;;;17.10;95.90;;;;;;4958426;28;19967;-78
2022/03/27 11:12:25;;;;;;;;;;;17.50;96.10;;;;;;4976317;28;20440;-78
2022/03/27 11:14:51;;;;;;;;;;;17.60;96.90;;;;;;4958568;28;19926;-78
2022/03/27 11:17:34;;;;;;;;;;;17.80;95.30;;;;;;4976384;28;19926;-78
2022/03/27 11:20:07;;;;;;;;;;;17.80;95.10;;;;;;4990874;28;20016;-78
2022/03/27 11:22:56;;;;;;;;;;;18.10;95.30;;;;;;4974466;28;19925;-78
2022/03/27 11:25:37;;;;;;;;;;;18.10;93.30;;;;;;4989133;28;19984;-78
2022/03/27 11:28:03;;;;;;;;;;;18.40;93.70;;;;;;4990098;28;19930;-78
2022/03/27 11:30:29;;;;;;;;;;;18.80;91.90;;;;;;4974018;28;20266;-78
2022/03/27 11:33:13;;;;;;;;;;;19.30;92.60;;;;;;4957910;28;20348;-78
2022/03/27 11:35:40;;;;;;;;;;;19.40;90.30;;;;;;4974559;28;19922;-79
2022/03/27 11:38:18;;;;;;;;;;;19.40;87.10;;;;;;4975870;28;19929;-77
2022/03/27 11:40:47;;;;;;;;;;;19.80;83.20;;;;;;4958319;28;20420;-78
2022/03/27 11:43:26;;;;;;;;;;;19.70;79.70;;;;;;4975573;28;19922;-79
2022/03/27 11:45:54;;;;;;;;;;;19.90;76.80;;;;;;4975856;28;19929;-78
2022/03/27 11:48:20;;;;;;;;;;;19.80;80.20;;;;;;4975404;28;20294;-78
2022/03/27 11:50:47;;;;;;;;;;;20.10;77.30;;;;;;4989567;28;19933;-77
2022/03/27 11:53:30;;;;;;;;;;;19.90;72.30;;;;;;4972421;28;19937;-79
2022/03/27 11:56:03;;;;;;;;;;;20.10;77.10;;;;;;4973452;28;19988;-78
2022/03/27 11:58:32;;;;;;;;;;;20.10;68.10;;;;;;4973085;28;19922;-78
2022/03/27 12:01:08;;;;;;;;;;;20.00;70.10;;;;;;4957782;28;19922;-78
2022/03/27 12:03:36;;;;;;;;;;;20.10;73.60;;;;;;4974059;28;20016;-79
2022/03/27 12:06:09;;;;;;;;;;;20.30;68.40;;;;;;4957781;28;19929;-78
2022/03/27 12:08:39;;;;;;;;;;;20.40;71.60;;;;;;4941894;28;19925;-78
2022/03/27 12:11:23;;;;;;;;;;;20.50;67.50;;;;;;4974119;28;19921;-78
2022/03/27 12:13:51;;;;;;;;;;;21.10;67.60;;;;;;4972809;28;20374;-78
2022/03/27 12:16:22;;;;;;;;;;;21.40;65.50;;;;;;4957945;28;20294;-78
2022/03/27 12:18:48;;;;;;;;;;;22.20;56.00;;;;;;4956882;28;19929;-79
2022/03/27 12:21:15;;;;;;;;;;;22.40;51.20;;;;;;4957741;28;19957;-78
2022/03/27 12:24:03;;;;;;;;;;;22.00;51.20;;;;;;4957511;28;20424;-78
2022/03/27 12:29:49;;;;;;;;;;;22.30;53.00;;;;;;4948277;28;19929;-78
2022/03/27 12:32:27;;;;;;;;;;;22.40;54.40;;;;;;4949567;28;19922;-78
2022/03/27 12:35:01;;;;;;;;;;;23.20;52.70;;;;;;4961226;28;19986;-78
2022/03/27 12:37:30;;;;;;;;;;;23.10;50.40;;;;;;4961390;28;19926;-77
2022/03/27 12:40:02;;;;;;;;;;;23.30;48.50;;;;;;4957754;28;19984;-78
2022/03/27 12:42:39;;;;;;;;;;;23.70;48.80;;;;;;4973872;28;19928;-77
2022/03/27 12:45:06;;;;;;;;;;;23.80;47.70;;;;;;4973242;28;20288;-79
2022/03/27 12:47:37;;;;;;;;;;;24.30;49.30;;;;;;4957604;28;20015;-79
2022/03/27 12:50:08;;;;;;;;;;;24.50;47.40;;;;;;4973440;28;19922;-78
2022/03/27 12:52:34;;;;;;;;;;;24.90;44.50;;;;;;4941215;28;19932;-79
2022/03/27 12:55:05;;;;;;;;;;;25.10;44.70;;;;;;4925256;28;20296;-78
2022/03/27 12:57:50;;;;;;;;;;;25.10;43.70;;;;;;4972530;28;20308;-78
2022/03/27 13:00:19;;;;;;;;;;;25.30;42.90;;;;;;4956682;28;19941;-78
2022/03/27 13:03:10;;;;;;;;;;;25.80;41.50;;;;;;4972400;28;19926;-77
2022/03/27 13:05:36;;;;;;;;;;;26.10;40.40;;;;;;4955922;28;20416;-77
2022/03/27 13:08:02;;;;;;;;;;;26.60;39.30;;;;;;4973459;28;19926;-77
2022/03/27 13:10:28;;;;;;;;;;;26.60;40.50;;;;;;4973762;28;19949;-78
2022/03/27 13:13:01;;;;;;;;;;;27.10;40.80;;;;;;4971763;28;19925;-78
2022/03/27 13:15:37;;;;;;;;;;;26.60;37.90;;;;;;4956431;28;20266;-78
2022/03/27 13:18:12;;;;;;;;;;;26.70;39.30;;;;;;4989135;28;19922;-78
2022/03/27 13:20:37;;;;;;;;;;;26.80;39.60;;;;;;4988314;28;20348;-77
2022/03/27 13:23:03;;;;;;;;;;;26.70;38.50;;;;;;4987479;28;20001;-78
2022/03/27 13:25:35;;;;;;;;;;;26.80;38.50;;;;;;4955980;28;19937;-77
2022/03/27 13:28:03;;;;;;;;;;;26.70;38.70;;;;;;4971337;28;20380;-78
2022/03/27 13:30:29;;;;;;;;;;;27.30;38.20;;;;;;4955727;28;19921;-77
2022/03/27 13:32:59;;;;;;;;;;;27.20;37.00;;;;;;4940195;28;20300;-78
2022/03/27 13:35:25;;;;;;;;;;;27.70;37.50;;;;;;4972158;28;20136;-78
2022/03/27 13:37:51;;;;;;;;;;;28.40;36.90;;;;;;4972094;28;19977;-78
2022/03/27 13:40:17;;;;;;;;;;;28.70;35.80;;;;;;4956730;28;19922;-79
2022/03/27 13:42:58;;;;;;;;;;;28.50;35.40;;;;;;4956725;28;19922;-77
2022/03/27 13:45:39;;;;;;;;;;;28.50;35.10;;;;;;4956388;28;19925;-78
2022/03/27 13:48:05;;;;;;;;;;;29.10;35.10;;;;;;4972990;28;19968;-78
2022/03/27 13:50:31;;;;;;;;;;;29.60;34.50;;;;;;4972267;28;19930;-78
2022/03/27 13:52:58;;;;;;;;;;;29.60;33.70;;;;;;4989939;28;19929;-78
2022/03/27 13:55:24;;;;;;;;;;;29.60;34.20;;;;;;4976196;28;19921;-78
2022/03/27 13:57:50;;;;;;;;;;;29.30;33.10;;;;;;4943521;28;19973;-78
2022/03/27 14:00:16;;;;;;;;;;;29.50;34.30;;;;;;4991957;28;20362;-78
2022/03/27 14:02:42;;;;;;;;;;;29.20;32.60;;;;;;4992642;28;19961;-78
2022/03/27 14:05:08;;;;;;;;;;;29.40;32.80;;;;;;4975965;28;20012;-78
2022/03/27 14:07:33;;;;;;;;;;;29.70;32.90;;;;;;4961123;28;19969;-78
2022/03/27 14:09:59;;;;;;;;;;;29.30;31.90;;;;;;4980731;28;19922;-78
2022/03/27 14:12:25;;;;;;;;;;;29.80;32.50;;;;;;4947989;28;19946;-80
2022/03/27 14:14:54;;;;;;;;;;;29.80;33.00;;;;;;4964244;28;19929;-77
2022/03/27 14:17:20;;;;;;;;;;;29.70;32.50;;;;;;4975670;28;19985;-78
2022/03/27 14:20:04;;;;;;;;;;;29.60;31.90;;;;;;4976667;28;19926;-77
2022/03/27 14:22:34;;;;;;;;;;;30.10;31.70;;;;;;4973193;28;19922;-78
2022/03/27 14:25:10;;;;;;;;;;;29.80;31.50;;;;;;4975261;28;19922;-78
2022/03/27 14:27:39;;;;;;;;;;;29.80;31.10;;;;;;4975945;28;20032;-78
2022/03/27 14:30:06;;;;;;;;;;;29.80;31.70;;;;;;4975395;28;20021;-78
2022/03/27 14:32:31;;;;;;;;;;;30.30;31.80;;;;;;4958964;28;19926;-78
2022/03/27 14:34:57;;;;;;;;;;;30.30;31.30;;;;;;4975996;28;20286;-78
2022/03/27 14:37:24;;;;;;;;;;;30.40;31.50;;;;;;4974841;28;19925;-78
2022/03/27 14:39:53;;;;;;;;;;;30.40;31.40;;;;;;4958558;28;19926;-78
2022/03/27 14:42:21;;;;;;;;;;;30.30;30.10;;;;;;4975946;28;19929;-78
2022/03/27 14:44:49;;;;;;;;;;;30.40;31.10;;;;;;4976188;28;19922;-79
2022/03/27 14:47:18;;;;;;;;;;;30.00;30.80;;;;;;4991063;28;19926;-78